Time;durP1;ratioP1;P1;durP2;ratioP2;P2;SDS_P1;SDS_P2;PMS_P1;PMS_P2;Temp;Humidity;BMP_temperature;BMP_pressure;BME280_temperature;BME280_humidity;BME280_pressure;Samples;Min_cycle;Max_cycle;Signal;HPM_P1;HPM_P2
2022/03/14 00:01:16;;;;;;;10.40;6.30;;;;;;;2.12;68.49;100130.81;4857599;29;20048;-71
2022/03/14 00:03:41;;;;;;;8.60;5.35;;;;;;;2.09;68.75;100124.78;4887493;29;20100;-74
2022/03/14 00:06:07;;;;;;;9.40;5.45;;;;;;;2.13;68.67;100132.53;4884367;29;20048;-72
2022/03/14 00:08:34;;;;;;;12.60;5.70;;;;;;;2.12;68.19;100130.81;4888744;29;20050;-72
2022/03/14 00:10:59;;;;;;;8.20;5.10;;;;;;;2.13;68.53;100131.69;4890990;29;20111;-72
2022/03/14 00:13:25;;;;;;;7.13;4.97;;;;;;;2.14;68.11;100133.41;4884249;29;20044;-72
2022/03/14 00:15:49;;;;;;;9.05;5.22;;;;;;;2.17;67.86;100133.28;4883123;29;20103;-72
2022/03/14 00:18:15;;;;;;;7.68;4.95;;;;;;;2.21;67.90;100124.41;4881223;29;20064;-72
2022/03/14 00:20:41;;;;;;;8.20;4.97;;;;;;;2.18;67.98;100124.50;4880772;29;20187;-75
2022/03/14 00:23:07;;;;;;;10.15;5.28;;;;;;;2.14;68.37;100122.88;4878598;29;20126;-73
2022/03/14 00:25:32;;;;;;;8.05;5.22;;;;;;;2.14;68.23;100125.53;4871531;29;20130;-74
2022/03/14 00:27:57;;;;;;;7.68;4.78;;;;;;;2.13;68.06;100122.03;4839595;29;20135;-73
2022/03/14 00:30:22;;;;;;;7.97;4.70;;;;;;;2.16;68.02;100126.31;4847130;29;20052;-74
2022/03/14 00:32:47;;;;;;;11.90;5.15;;;;;;;2.10;68.50;100130.00;4862091;29;20550;-72
2022/03/14 00:35:12;;;;;;;10.45;5.18;;;;;;;2.13;68.28;100124.66;4864078;29;20530;-74
2022/03/14 00:37:38;;;;;;;8.82;5.43;;;;;;;2.16;68.07;100134.19;4862111;29;20036;-73
2022/03/14 00:40:05;;;;;;;8.68;5.57;;;;;;;2.18;68.08;100128.00;4869954;29;20052;-76
2022/03/14 00:42:30;;;;;;;10.55;5.70;;;;;;;2.15;68.21;100125.44;4861303;29;20036;-74
2022/03/14 00:45:00;;;;;;;9.93;5.75;;;;;;;2.19;68.14;100119.19;4862913;29;20522;-75
2022/03/14 00:47:25;;;;;;;8.45;5.40;;;;;;;2.24;67.99;100111.19;4863350;29;20464;-75
2022/03/14 00:49:50;;;;;;;12.05;6.25;;;;;;;2.21;68.22;100136.72;4862526;29;20115;-78
2022/03/14 00:52:16;;;;;;;7.60;5.28;;;;;;;2.24;68.05;100132.22;4854666;29;20037;-77
2022/03/14 00:54:42;;;;;;;15.02;6.60;;;;;;;2.26;67.95;100133.00;4860268;29;20499;-76
2022/03/14 00:57:07;;;;;;;6.70;4.32;;;;;;;2.32;67.58;100122.31;4851859;29;20131;-77
2022/03/14 00:59:32;;;;;;;13.35;5.75;;;;;;;2.24;67.70;100108.56;4852986;29;20131;-77
2022/03/14 01:01:57;;;;;;;9.02;5.00;;;;;;;2.28;67.55;100104.03;4837847;29;20060;-75
2022/03/14 01:04:26;;;;;;;9.50;5.45;;;;;;;2.24;67.95;100108.56;4850963;29;20092;-77
2022/03/14 01:06:50;;;;;;;7.78;5.97;;;;;;;2.28;67.41;100110.16;4851685;29;20048;-74
2022/03/14 01:09:15;;;;;;;9.27;5.90;;;;;;;2.26;67.57;100113.78;4850494;29;20052;-75
2022/03/14 01:11:41;;;;;;;11.98;6.47;;;;;;;2.28;67.16;100104.03;4850504;29;20045;-79
2022/03/14 01:14:06;;;;;;;9.35;4.88;;;;;;;2.26;67.55;100104.06;4852167;29;20079;-73
2022/03/14 01:16:31;;;;;;;9.82;5.90;;;;;;;2.26;67.71;100098.81;4850138;29;20080;-75
2022/03/14 01:18:56;;;;;;;10.48;5.55;;;;;;;2.28;67.65;100114.56;4849788;29;20595;-76
2022/03/14 01:21:21;;;;;;;9.88;6.25;;;;;;;2.30;67.40;100110.97;4856025;29;20380;-71
2022/03/14 01:23:47;;;;;;;9.95;5.43;;;;;;;2.31;67.27;100107.44;4853665;29;20105;-69
2022/03/14 01:26:11;;;;;;;11.35;5.72;;;;;;;2.18;68.05;100113.97;4872675;29;20499;-68
2022/03/14 01:28:39;;;;;;;8.82;5.15;;;;;;;2.21;67.91;100116.53;4865141;29;20044;-68
2022/03/14 01:31:04;;;;;;;8.38;5.05;;;;;;;2.26;68.05;100117.22;4880759;29;20099;-68
2022/03/14 01:33:29;;;;;;;9.80;5.47;;;;;;;2.26;67.67;100106.72;4882145;29;20051;-68
2022/03/14 01:35:54;;;;;;;7.55;5.22;;;;;;;2.18;67.84;100104.31;4880903;29;20052;-66
2022/03/14 01:38:19;;;;;;;13.77;5.65;;;;;;;2.15;68.31;100104.41;4883032;29;20036;-66
2022/03/14 01:40:44;;;;;;;7.95;5.78;;;;;;;2.17;68.58;100117.50;4883124;29;20143;-72
2022/03/14 01:43:08;;;;;;;8.77;5.20;;;;;;;2.21;68.06;100111.25;4882248;29;20103;-74
2022/03/14 01:45:34;;;;;;;7.80;5.47;;;;;;;2.24;68.13;100112.94;4882830;29;20048;-73
2022/03/14 01:47:58;;;;;;;7.63;5.22;;;;;;;2.29;68.04;100113.66;4883285;29;20126;-73
2022/03/14 01:50:25;;;;;;;9.27;5.55;;;;;;;2.34;67.70;100107.34;4885181;29;20535;-69
2022/03/14 01:52:50;;;;;;;8.80;5.45;;;;;;;2.38;67.50;100108.97;4894817;29;20384;-71
2022/03/14 01:55:14;;;;;;;9.63;5.47;;;;;;;2.39;67.02;100104.56;4893935;29;20455;-70
2022/03/14 01:57:40;;;;;;;8.38;5.32;;;;;;;2.36;66.96;100104.69;4884730;29;20072;-71
2022/03/14 02:00:07;;;;;;;9.00;5.53;;;;;;;2.32;67.49;100109.16;4883894;29;20044;-71
2022/03/14 02:02:39;;;;;;;8.65;4.93;;;;;;;2.24;67.84;100121.69;4884052;29;20051;-71
2022/03/14 02:05:04;;;;;;;8.30;4.68;;;;;;;2.30;67.79;100126.75;4870646;29;20052;-74
2022/03/14 02:07:31;;;;;;;7.20;4.90;;;;;;;2.29;67.59;100119.78;4888836;29;20055;-74
2022/03/14 02:09:55;;;;;;;7.13;4.93;;;;;;;2.34;67.56;100114.38;4874949;29;20052;-76
2022/03/14 02:12:20;;;;;;;6.85;4.68;;;;;;;2.30;67.68;100118.00;4873512;29;20043;-79
2022/03/14 02:14:45;;;;;;;6.97;4.97;;;;;;;2.28;67.86;100125.09;4882551;29;20052;-74
2022/03/14 02:17:14;;;;;;;7.35;5.10;;;;;;;2.33;67.44;100124.06;4876280;29;20086;-73
2022/03/14 02:19:40;;;;;;;8.70;5.25;;;;;;;2.34;68.16;100128.41;4877382;29;20132;-73
2022/03/14 02:22:08;;;;;;;9.43;5.95;;;;;;;2.36;67.90;100126.59;4874053;29;20044;-71
2022/03/14 02:24:33;;;;;;;8.50;5.13;;;;;;;2.32;68.06;100127.59;4870061;29;20052;-76
2022/03/14 02:26:58;;;;;;;10.48;5.50;;;;;;;2.29;68.05;100135.56;4867436;29;20044;-73
2022/03/14 02:29:24;;;;;;;8.13;5.15;;;;;;;2.33;68.05;100125.81;4865648;29;20095;-74
2022/03/14 02:31:49;;;;;;;9.20;6.13;;;;;;;2.31;68.01;100135.53;4869633;29;20051;-75
2022/03/14 02:34:14;;;;;;;7.50;4.57;;;;;;;2.35;67.59;100127.50;4865182;29;20044;-76
2022/03/14 02:36:39;;;;;;;8.18;4.97;;;;;;;2.36;67.39;100125.72;4861844;29;20044;-74
2022/03/14 02:39:04;;;;;;;10.50;5.70;;;;;;;2.35;67.78;100135.41;4862118;29;20052;-75
2022/03/14 02:41:28;;;;;;;9.48;4.82;;;;;;;2.37;67.31;100146.72;4863333;29;20045;-74
2022/03/14 02:43:53;;;;;;;8.90;5.45;;;;;;;2.37;67.81;100146.72;4863467;29;20054;-75
2022/03/14 02:46:18;;;;;;;6.88;4.88;;;;;;;2.38;67.70;100137.91;4863309;29;20055;-74
2022/03/14 02:48:43;;;;;;;9.45;4.97;;;;;;;2.36;67.48;100150.28;4863410;29;20036;-74
2022/03/14 02:51:08;;;;;;;10.13;5.35;;;;;;;2.36;67.82;100139.75;4863020;29;20137;-71
2022/03/14 02:53:33;;;;;;;10.98;6.22;;;;;;;2.26;68.70;100143.53;4861545;29;20099;-74
2022/03/14 02:55:58;;;;;;;10.90;6.15;;;;;;;2.20;68.88;100138.47;4862751;29;20362;-71
2022/03/14 02:58:22;;;;;;;9.23;5.53;;;;;;;2.24;68.74;100131.38;4831020;29;20056;-72
2022/03/14 03:00:51;;;;;;;7.72;4.93;;;;;;;2.29;68.87;100151.34;4862174;29;20049;-73
2022/03/14 03:03:16;;;;;;;7.25;5.13;;;;;;;2.28;68.78;100143.50;4861538;29;20557;-74
2022/03/14 03:05:44;;;;;;;10.18;5.57;;;;;;;2.26;68.90;100148.78;4862648;29;20416;-73
2022/03/14 03:08:10;;;;;;;9.77;5.30;;;;;;;2.31;68.39;100148.69;4862972;29;20048;-73
2022/03/14 03:10:36;;;;;;;9.20;5.50;;;;;;;2.31;68.76;100149.53;4861977;29;20522;-71
2022/03/14 03:13:02;;;;;;;10.73;5.40;;;;;;;2.32;68.48;100148.63;4861662;29;20491;-72
2022/03/14 03:15:27;;;;;;;10.50;5.10;;;;;;;2.32;68.83;100140.75;4863015;29;20056;-72
2022/03/14 03:17:52;;;;;;;10.30;5.40;;;;;;;2.32;69.04;100139.88;4862689;29;20060;-71
2022/03/14 03:20:17;;;;;;;11.13;5.32;;;;;;;2.31;68.67;100146.91;4846453;29;20040;-72
2022/03/14 03:22:42;;;;;;;8.20;5.53;;;;;;;2.32;68.87;100140.75;4861620;29;20052;-71
2022/03/14 03:25:07;;;;;;;10.77;5.80;;;;;;;2.33;68.85;100144.22;4863100;29;20048;-71
2022/03/14 03:27:32;;;;;;;9.60;5.40;;;;;;;2.32;69.00;100146.00;4863181;29;20127;-71
2022/03/14 03:29:57;;;;;;;7.95;4.90;;;;;;;2.30;69.15;100150.44;4863018;29;20053;-70
2022/03/14 03:32:21;;;;;;;12.45;5.82;;;;;;;2.29;69.42;100143.44;4861302;29;20044;-71
2022/03/14 03:34:46;;;;;;;9.55;5.75;;;;;;;2.30;69.66;100145.19;4863408;29;20447;-71
2022/03/14 03:37:11;;;;;;;11.45;6.18;;;;;;;2.29;69.28;100143.44;4863910;29;20127;-72
2022/03/14 03:39:36;;;;;;;9.25;5.93;;;;;;;2.32;69.22;100143.38;4847568;29;20199;-71
2022/03/14 03:42:01;;;;;;;8.52;6.00;;;;;;;2.32;68.97;100143.38;4863377;29;20045;-71
2022/03/14 03:44:26;;;;;;;11.50;5.80;;;;;;;2.30;69.36;100150.44;4862603;29;20087;-71
2022/03/14 03:46:51;;;;;;;10.15;6.05;;;;;;;2.31;69.62;100149.53;4861085;29;20414;-74
2022/03/14 03:49:16;;;;;;;9.10;5.22;;;;;;;2.30;69.68;100155.69;4863084;29;20052;-74
2022/03/14 03:51:42;;;;;;;13.75;6.57;;;;;;;2.31;69.60;100143.41;4862437;29;20038;-73
2022/03/14 03:54:07;;;;;;;9.02;5.28;;;;;;;2.33;69.76;100147.72;4860998;29;20063;-74
2022/03/14 03:56:34;;;;;;;11.18;5.95;;;;;;;2.27;69.84;100158.41;4863068;29;20486;-76
2022/03/14 03:58:59;;;;;;;8.68;6.15;;;;;;;2.29;70.23;100169.75;4860930;29;20052;-75
2022/03/14 04:01:24;;;;;;;10.75;6.10;;;;;;;2.33;69.90;100165.28;4845418;29;20051;-75
2022/03/14 04:03:54;;;;;;;10.23;6.88;;;;;;;2.37;69.74;100165.13;4862126;29;20135;-75
2022/03/14 04:06:20;;;;;;;11.90;6.85;;;;;;;2.37;69.94;100159.03;4860516;29;20048;-75
2022/03/14 04:08:46;;;;;;;12.00;6.43;;;;;;;2.39;70.07;100172.97;4845594;29;20048;-75
2022/03/14 04:11:12;;;;;;;14.43;7.07;;;;;;;2.40;69.82;100167.66;4860837;29;20072;-74
2022/03/14 04:13:37;;;;;;;13.05;7.90;;;;;;;2.43;69.86;100167.59;4862529;29;20942;-76
2022/03/14 04:16:03;;;;;;;10.45;7.18;;;;;;;2.44;69.62;100171.09;4844749;29;20040;-74
2022/03/14 04:18:28;;;;;;;13.25;7.15;;;;;;;2.45;69.49;100171.03;4861437;29;20061;-71
2022/03/14 04:20:53;;;;;;;11.10;6.80;;;;;;;2.43;69.63;100178.13;4860186;29;20075;-72
2022/03/14 04:23:19;;;;;;;12.13;7.13;;;;;;;2.43;69.56;100162.31;4861537;29;20108;-72
2022/03/14 04:25:45;;;;;;;11.40;6.97;;;;;;;2.48;69.58;100165.66;4860162;29;20096;-72
2022/03/14 04:28:10;;;;;;;13.30;7.40;;;;;;;2.49;69.57;100159.50;4861127;29;20049;-72
2022/03/14 04:30:35;;;;;;;14.40;7.63;;;;;;;2.51;69.39;100168.22;4861495;29;20044;-72
2022/03/14 04:33:00;;;;;;;13.88;8.20;;;;;;;2.52;69.65;100166.44;4845012;29;20047;-74
2022/03/14 04:35:25;;;;;;;14.00;8.98;;;;;;;2.55;69.49;100172.47;4859945;29;20138;-74
2022/03/14 04:37:50;;;;;;;14.13;9.02;;;;;;;2.57;69.71;100169.81;4861337;29;20088;-73
2022/03/14 04:40:15;;;;;;;14.98;7.85;;;;;;;2.60;69.30;100166.22;4859965;29;20048;-73
2022/03/14 04:42:41;;;;;;;16.02;9.48;;;;;;;2.62;69.06;100177.56;4844326;29;20059;-73
2022/03/14 04:45:06;;;;;;;16.80;10.68;;;;;;;2.62;68.75;100172.28;4861379;29;20461;-71
2022/03/14 04:47:31;;;;;;;19.42;9.77;;;;;;;2.61;69.00;100179.31;4861899;29;20419;-71
2022/03/14 04:49:56;;;;;;;20.67;9.05;;;;;;;2.61;68.95;100168.78;4862129;29;20052;-71
2022/03/14 04:52:22;;;;;;;16.13;9.57;;;;;;;2.61;69.42;100174.06;4861127;29;20072;-73
2022/03/14 04:54:46;;;;;;;15.68;9.38;;;;;;;2.63;69.27;100174.88;4864632;29;20106;-71
2022/03/14 04:57:11;;;;;;;16.42;10.13;;;;;;;2.61;69.25;100165.28;4864802;29;20072;-72
2022/03/14 04:59:36;;;;;;;21.20;10.63;;;;;;;2.62;69.79;100169.66;4865039;29;20132;-73
2022/03/14 05:02:01;;;;;;;13.77;8.52;;;;;;;2.64;69.58;100171.34;4865277;29;20079;-73
2022/03/14 05:04:26;;;;;;;18.70;10.57;;;;;;;2.69;69.27;100177.34;4873497;29;20048;-74
2022/03/14 05:06:50;;;;;;;15.63;9.43;;;;;;;2.68;69.27;100182.63;4871234;29;20055;-74
2022/03/14 05:09:16;;;;;;;20.48;10.85;;;;;;;2.70;69.29;100180.84;4869910;29;20045;-72
2022/03/14 05:11:41;;;;;;;17.92;9.23;;;;;;;2.71;69.56;100190.44;4863361;29;20044;-73
2022/03/14 05:14:09;;;;;;;15.70;9.68;;;;;;;2.73;68.95;100193.88;4865186;29;20051;-72
2022/03/14 05:16:33;;;;;;;20.92;10.75;;;;;;;2.71;69.16;100185.19;4863628;29;20059;-71
2022/03/14 05:18:58;;;;;;;17.83;10.55;;;;;;;2.72;69.20;100184.25;4863260;29;20062;-72
2022/03/14 05:21:23;;;;;;;19.23;11.18;;;;;;;2.70;69.22;100189.59;4863090;29;20416;-72
2022/03/14 05:23:47;;;;;;;21.67;11.20;;;;;;;2.67;68.98;100181.78;4863334;29;20044;-72
2022/03/14 05:26:12;;;;;;;18.02;10.45;;;;;;;2.70;68.98;100186.09;4865530;29;20143;-71
2022/03/14 05:28:37;;;;;;;20.98;10.75;;;;;;;2.71;69.47;100187.81;4865662;29;20447;-73
2022/03/14 05:31:02;;;;;;;18.40;10.43;;;;;;;2.74;68.78;100187.69;4879419;29;20052;-73
2022/03/14 05:33:27;;;;;;;19.20;10.55;;;;;;;2.73;68.74;100194.75;4881859;29;20133;-76
2022/03/14 05:35:54;;;;;;;19.77;11.43;;;;;;;2.73;69.28;100202.63;4882050;29;20163;-77
2022/03/14 05:38:18;;;;;;;17.42;10.23;;;;;;;2.78;68.85;100194.59;4881864;29;20035;-77
2022/03/14 05:40:43;;;;;;;19.65;10.65;;;;;;;2.80;68.61;100195.44;4865886;29;20423;-76
2022/03/14 05:43:09;;;;;;;18.45;10.45;;;;;;;2.78;68.45;100194.59;4863504;29;20052;-76
2022/03/14 05:45:35;;;;;;;20.88;10.38;;;;;;;2.79;68.39;100202.47;4864491;29;20531;-77
2022/03/14 05:48:00;;;;;;;20.00;10.80;;;;;;;2.78;68.56;100208.63;4864599;29;20048;-77
2022/03/14 05:50:25;;;;;;;15.85;9.00;;;;;;;2.81;68.30;100187.50;4864586;29;20048;-77
2022/03/14 05:52:54;;;;;;;17.48;11.07;;;;;;;2.81;68.52;100198.03;4847918;29;20036;-76
2022/03/14 05:55:19;;;;;;;21.25;11.02;;;;;;;2.77;68.76;100199.00;4864561;29;20048;-76
2022/03/14 05:57:44;;;;;;;21.60;11.02;;;;;;;2.78;68.67;100191.97;4863182;29;20470;-77
2022/03/14 06:00:10;;;;;;;15.13;10.73;;;;;;;2.78;68.77;100199.88;4868198;29;20040;-76
2022/03/14 06:02:48;;;;;;;17.25;9.80;;;;;;;2.84;69.21;100197.03;4869978;29;20135;-76
2022/03/14 06:05:13;;;;;;;18.60;10.18;;;;;;;2.81;69.22;100195.38;4863178;29;20052;-76
2022/03/14 06:07:38;;;;;;;15.93;10.80;;;;;;;2.84;69.32;100195.28;4864650;29;20045;-77
2022/03/14 06:10:03;;;;;;;25.60;11.88;;;;;;;2.87;68.99;100199.59;4864350;29;20127;-77
2022/03/14 06:12:30;;;;;;;19.00;9.98;;;;;;;2.89;68.93;100203.03;4862857;29;20037;-77
2022/03/14 06:14:56;;;;;;;17.52;10.13;;;;;;;2.90;68.82;100199.50;4863419;29;20108;-76
2022/03/14 06:17:21;;;;;;;18.08;10.65;;;;;;;2.88;68.99;100206.56;4863002;29;20111;-77
2022/03/14 06:19:47;;;;;;;19.88;10.50;;;;;;;2.88;68.86;100212.72;4865058;29;20125;-77
2022/03/14 06:22:15;;;;;;;17.13;10.10;;;;;;;2.94;69.36;100209.00;4865942;29;20153;-77
2022/03/14 06:24:39;;;;;;;21.23;11.38;;;;;;;3.04;69.28;100207.84;4865519;29;20053;-75
2022/03/14 06:27:04;;;;;;;19.67;10.18;;;;;;;3.20;69.11;100205.53;4867997;29;20040;-76
2022/03/14 06:29:29;;;;;;;18.15;11.00;;;;;;;3.35;68.74;100206.81;4853451;29;20055;-73
2022/03/14 06:31:54;;;;;;;20.02;10.80;;;;;;;3.51;67.92;100208.88;4876768;29;20040;-73
2022/03/14 06:34:19;;;;;;;21.08;10.15;;;;;;;3.84;67.66;100206.88;4867439;29;20147;-74
2022/03/14 06:36:44;;;;;;;19.00;10.00;;;;;;;4.32;66.79;100214.81;4869679;29;20135;-75
2022/03/14 06:39:09;;;;;;;18.20;9.88;;;;;;;4.63;64.80;100209.22;4866177;29;20140;-74
2022/03/14 06:41:38;;;;;;;16.67;9.48;;;;;;;4.86;63.51;100204.84;4864429;29;20044;-74
2022/03/14 06:44:02;;;;;;;20.50;9.15;;;;;;;5.05;63.00;100211.13;4864151;29;20059;-73
2022/03/14 06:46:27;;;;;;;19.13;8.25;;;;;;;5.26;62.41;100217.34;4862773;29;20036;-72
2022/03/14 06:48:52;;;;;;;14.40;8.48;;;;;;;5.50;61.60;100210.19;4863454;29;20135;-75
2022/03/14 06:51:17;;;;;;;24.90;8.85;;;;;;;5.67;61.30;100215.59;4863402;29;20044;-74
2022/03/14 06:53:42;;;;;;;17.15;8.23;;;;;;;5.63;60.19;100227.25;4863497;29;20460;-76
2022/03/14 06:56:07;;;;;;;13.23;7.72;;;;;;;5.42;60.12;100221.91;4863397;29;20048;-74
2022/03/14 06:58:34;;;;;;;17.17;8.63;;;;;;;5.26;60.20;100222.63;4863240;29;20044;-74
2022/03/14 07:01:00;;;;;;;13.15;7.97;;;;;;;5.17;60.26;100225.63;4863893;29;20507;-73
2022/03/14 07:03:27;;;;;;;14.35;7.88;;;;;;;5.15;59.93;100224.84;4864268;29;20495;-73
2022/03/14 07:05:51;;;;;;;11.45;6.50;;;;;;;5.14;59.71;100237.19;4864628;29;20048;-75
2022/03/14 07:08:17;;;;;;;12.40;7.18;;;;;;;5.12;59.83;100231.09;4863346;29;20059;-74
2022/03/14 07:10:42;;;;;;;11.70;7.15;;;;;;;5.09;59.35;100229.44;4847904;29;20040;-75
2022/03/14 07:13:07;;;;;;;10.35;7.28;;;;;;;5.10;59.35;100230.28;4864696;29;20084;-74
2022/03/14 07:15:33;;;;;;;13.80;7.55;;;;;;;5.16;59.01;100226.56;4864288;29;20048;-74
2022/03/14 07:17:57;;;;;;;10.40;6.50;;;;;;;5.28;58.47;100221.63;4864676;29;20064;-74
2022/03/14 07:20:24;;;;;;;12.48;6.78;;;;;;;5.35;58.01;100215.16;4863363;29;20057;-74
2022/03/14 07:23:02;;;;;;;12.70;6.57;;;;;;;5.48;57.50;100223.47;4845811;29;20044;-74
2022/03/14 07:25:32;;;;;;;14.90;6.70;;;;;;;5.69;57.22;100219.91;4861828;29;20044;-74
2022/03/14 07:28:04;;;;;;;9.50;6.35;;;;;;;5.84;56.75;100221.91;4863350;29;20092;-74
2022/03/14 07:30:29;;;;;;;9.38;5.45;;;;;;;5.92;56.16;100228.69;4862014;29;20048;-75
2022/03/14 07:32:54;;;;;;;10.98;6.22;;;;;;;5.94;55.79;100222.41;4846197;29;20047;-75
2022/03/14 07:35:22;;;;;;;17.63;6.50;;;;;;;6.01;55.54;100225.63;4862120;29;20131;-75
2022/03/14 07:37:48;;;;;;;14.95;7.15;;;;;;;6.05;55.46;100214.88;4861867;29;20042;-74
2022/03/14 07:40:14;;;;;;;12.13;6.10;;;;;;;6.12;54.71;100220.72;4862424;29;20100;-75
2022/03/14 07:42:45;;;;;;;8.95;6.22;;;;;;;6.15;54.34;100210.88;4845824;29;20055;-74
2022/03/14 07:45:11;;;;;;;11.18;6.00;;;;;;;6.16;54.10;100214.38;4862709;29;20519;-75
2022/03/14 07:47:36;;;;;;;9.20;5.45;;;;;;;6.11;54.03;100206.63;4863201;29;20515;-76
2022/03/14 07:50:01;;;;;;;9.23;6.43;;;;;;;6.11;54.26;100219.88;4863916;29;20040;-73
2022/03/14 07:52:27;;;;;;;8.50;5.07;;;;;;;6.07;53.66;100220.97;4862850;29;20076;-74
2022/03/14 07:54:52;;;;;;;9.00;5.47;;;;;;;5.99;53.38;100238.06;4862197;29;20131;-74
2022/03/14 07:57:17;;;;;;;10.82;5.38;;;;;;;5.89;53.46;100226.16;4863488;29;20130;-73
2022/03/14 07:59:46;;;;;;;13.02;5.57;;;;;;;5.72;53.38;100227.72;4862282;29;20055;-77
2022/03/14 08:02:10;;;;;;;11.05;5.55;;;;;;;5.61;53.35;100222.03;4863279;29;20897;-74
2022/03/14 08:04:39;;;;;;;9.90;5.32;;;;;;;5.65;53.11;100223.59;4862904;29;20595;-74
2022/03/14 08:07:04;;;;;;;12.23;5.50;;;;;;;5.77;53.00;100224.88;4845702;29;20072;-73
2022/03/14 08:09:29;;;;;;;9.52;5.50;;;;;;;6.02;52.54;100225.56;4861924;29;20080;-74
2022/03/14 08:11:55;;;;;;;10.95;5.88;;;;;;;6.38;51.94;100214.28;4861966;29;20049;-74
2022/03/14 08:14:20;;;;;;;8.75;5.65;;;;;;;6.73;51.18;100217.97;4861931;29;20052;-74
2022/03/14 08:16:45;;;;;;;9.82;5.13;;;;;;;7.02;50.09;100212.16;4861954;29;20048;-74
2022/03/14 08:19:09;;;;;;;6.95;4.80;;;;;;;7.18;49.21;100221.09;4862043;29;20120;-74
2022/03/14 08:21:34;;;;;;;9.15;4.97;;;;;;;7.38;48.69;100219.25;4863198;29;20049;-74
2022/03/14 08:24:00;;;;;;;6.45;4.57;;;;;;;7.61;47.60;100226.94;4862107;29;20047;-73
2022/03/14 08:26:24;;;;;;;8.13;5.20;;;;;;;7.80;47.14;100221.53;4845774;29;20128;-74
2022/03/14 08:28:49;;;;;;;9.10;4.45;;;;;;;7.87;46.86;100222.97;4865477;29;20127;-74
2022/03/14 08:31:17;;;;;;;6.40;4.50;;;;;;;7.83;46.32;100221.41;4868403;29;20048;-74
2022/03/14 08:33:44;;;;;;;11.15;5.18;;;;;;;7.77;46.41;100219.06;4868574;29;20202;-74
2022/03/14 08:36:09;;;;;;;9.52;4.78;;;;;;;7.78;46.79;100221.66;4867147;29;20049;-74
2022/03/14 08:38:34;;;;;;;8.05;4.75;;;;;;;7.92;46.43;100211.16;4852223;29;20047;-74
2022/03/14 08:40:59;;;;;;;9.13;4.82;;;;;;;8.34;45.54;100212.56;4869731;29;20044;-74
2022/03/14 08:43:24;;;;;;;7.35;4.30;;;;;;;8.99;44.26;100210.75;4852373;29;20427;-73
2022/03/14 08:45:50;;;;;;;6.13;4.35;;;;;;;9.72;42.04;100218.03;4869072;29;20052;-75
2022/03/14 08:48:16;;;;;;;10.73;4.55;;;;;;;10.63;40.58;100200.94;4867839;29;20471;-75
2022/03/14 08:50:41;;;;;;;5.60;3.50;;;;;;;11.33;39.39;100206.25;4851427;29;20068;-73
2022/03/14 08:53:05;;;;;;;7.78;4.38;;;;;;;11.99;38.50;100199.09;4867997;29;20044;-74
2022/03/14 08:55:30;;;;;;;9.50;4.40;;;;;;;12.38;36.71;100197.31;4851372;29;20049;-74
2022/03/14 08:57:56;;;;;;;6.25;4.07;;;;;;;12.45;36.06;100190.53;4870905;29;20036;-73
2022/03/14 09:00:25;;;;;;;6.55;4.22;;;;;;;12.68;36.05;100199.63;4869762;29;20040;-74
2022/03/14 09:02:50;;;;;;;4.32;3.67;;;;;;;12.87;34.82;100197.31;4868482;29;20052;-73
2022/03/14 09:05:15;;;;;;;5.43;3.33;;;;;;;12.60;34.50;100194.81;4870157;29;20055;-74
2022/03/14 09:07:40;;;;;;;10.93;4.25;;;;;;;12.07;34.41;100197.72;4868432;29;20048;-73
2022/03/14 09:10:08;;;;;;;6.28;4.15;;;;;;;11.40;35.47;100196.91;4869285;29;20048;-73
2022/03/14 09:12:33;;;;;;;6.72;3.75;;;;;;;11.27;35.82;100197.69;4868697;29;20044;-73
2022/03/14 09:14:58;;;;;;;5.97;3.63;;;;;;;11.48;35.79;100200.75;4835631;29;20048;-74
2022/03/14 09:17:25;;;;;;;5.00;3.85;;;;;;;11.11;35.65;100196.97;4868098;29;20056;-74
2022/03/14 09:19:50;;;;;;;5.10;4.05;;;;;;;10.67;35.97;100204.28;4868057;29;20044;-73
2022/03/14 09:22:18;;;;;;;6.72;4.15;;;;;;;10.22;36.45;100210.66;4867621;29;20431;-74
2022/03/14 09:24:45;;;;;;;8.13;3.78;;;;;;;10.22;37.17;100206.19;4850937;29;20044;-74
2022/03/14 09:27:11;;;;;;;6.22;4.07;;;;;;;11.28;35.73;100199.41;4866967;29;20040;-74
2022/03/14 09:29:36;;;;;;;7.60;4.30;;;;;;;11.93;34.57;100191.50;4867261;29;20052;-74
2022/03/14 09:32:01;;;;;;;6.90;3.67;;;;;;;12.45;33.93;100195.91;4866543;29;20040;-74
2022/03/14 09:34:26;;;;;;;7.88;3.13;;;;;;;12.57;33.04;100188.81;4868022;29;20056;-75
2022/03/14 09:36:51;;;;;;;6.30;4.07;;;;;;;13.07;32.80;100193.22;4850881;29;20055;-74
2022/03/14 09:39:15;;;;;;;7.10;3.30;;;;;;;13.94;31.54;100198.28;4870724;29;20135;-74
2022/03/14 09:41:42;;;;;;;5.05;3.50;;;;;;;15.09;29.88;100192.78;4863860;29;20045;-75
2022/03/14 09:44:09;;;;;;;6.22;3.63;;;;;;;15.91;29.47;100197.50;4863458;29;20055;-73
2022/03/14 09:46:39;;;;;;;5.97;3.42;;;;;;;16.61;27.63;100194.13;4864901;29;20107;-73
2022/03/14 09:49:09;;;;;;;5.00;3.00;;;;;;;16.53;27.34;100190.41;4864410;29;20055;-75
2022/03/14 09:51:39;;;;;;;5.93;2.97;;;;;;;16.85;27.53;100196.53;4865060;29;20131;-71
2022/03/14 09:54:05;;;;;;;3.78;2.55;;;;;;;16.50;26.93;100185.28;4863560;29;20053;-71
2022/03/14 09:56:29;;;;;;;5.15;3.17;;;;;;;15.44;27.68;100193.44;4863582;29;20123;-73
2022/03/14 09:58:54;;;;;;;6.82;3.60;;;;;;;14.26;29.03;100194.94;4864756;29;20140;-72
2022/03/14 10:01:22;;;;;;;8.90;3.47;;;;;;;13.36;29.96;100191.94;4863498;29;20048;-72
2022/03/14 10:03:49;;;;;;;6.10;3.35;;;;;;;12.95;30.45;100189.63;4854005;29;20044;-73
2022/03/14 10:06:14;;;;;;;5.78;3.80;;;;;;;13.17;30.65;100193.44;4869041;29;20044;-74
2022/03/14 10:08:39;;;;;;;7.68;3.15;;;;;;;14.03;29.70;100186.84;4874103;29;20040;-74
2022/03/14 10:11:03;;;;;;;4.82;3.05;;;;;;;15.19;28.34;100183.00;4874588;29;20044;-74
2022/03/14 10:13:28;;;;;;;6.28;3.60;;;;;;;16.51;27.12;100176.22;4855134;29;20048;-74
2022/03/14 10:15:53;;;;;;;7.30;3.55;;;;;;;16.56;26.38;100182.06;4870514;29;20108;-74
2022/03/14 10:18:18;;;;;;;4.03;3.17;;;;;;;15.95;26.27;100188.22;4869475;29;20053;-75
2022/03/14 10:21:07;;;;;;;4.68;3.40;;;;;;;15.55;27.96;100184.50;4875253;29;20099;-77
2022/03/14 10:23:38;;;;;;;3.47;2.90;;;;;;;15.14;27.51;100179.81;4870415;29;20531;-75
2022/03/14 10:26:06;;;;;;;5.60;3.50;;;;;;;14.65;28.31;100183.78;4881556;29;20039;-76
2022/03/14 10:28:32;;;;;;;5.45;3.40;;;;;;;14.01;28.71;100182.56;4848466;29;20568;-75
2022/03/14 10:31:00;;;;;;;4.32;2.88;;;;;;;13.35;29.35;100178.66;4851313;29;20045;-72
2022/03/14 10:33:25;;;;;;;7.00;3.53;;;;;;;12.53;30.23;100184.66;4847104;29;20045;-73
2022/03/14 10:35:52;;;;;;;5.68;3.40;;;;;;;11.87;30.90;100177.69;4850039;29;20051;-73
2022/03/14 10:38:17;;;;;;;6.60;3.42;;;;;;;11.32;31.67;100177.84;4849615;29;20051;-76
2022/03/14 10:40:46;;;;;;;3.72;3.10;;;;;;;11.10;32.20;100181.91;4829092;29;20817;-73
2022/03/14 10:43:20;;;;;;;8.70;3.97;;;;;;;11.09;33.21;100172.19;4844474;29;20041;-73
2022/03/14 10:45:45;;;;;;;6.80;3.90;;;;;;;10.95;32.93;100168.72;4813007;29;20061;-74
2022/03/14 10:48:10;;;;;;;4.18;3.05;;;;;;;10.65;33.87;100169.72;4844822;29;20105;-74
2022/03/14 10:50:37;;;;;;;7.70;4.10;;;;;;;10.46;33.29;100180.69;4857682;29;20061;-70
2022/03/14 10:53:10;;;;;;;5.13;3.47;;;;;;;10.40;33.35;100162.41;4826197;29;20052;-69
2022/03/14 10:55:39;;;;;;;7.25;3.65;;;;;;;10.02;33.39;100161.22;4878481;29;20054;-69
2022/03/14 10:58:23;;;;;;;4.32;3.42;;;;;;;9.65;34.03;100168.75;4872057;29;20050;-72
2022/03/14 11:00:55;;;;;;;6.03;2.88;;;;;;;9.04;34.94;100167.00;4868419;29;20333;-69
2022/03/14 11:03:30;;;;;;;4.90;3.13;;;;;;;9.01;35.58;100172.50;4873484;29;20112;-70
2022/03/14 11:06:04;;;;;;;5.68;3.40;;;;;;;8.98;36.19;100167.34;4870186;29;20040;-76
2022/03/14 11:08:37;;;;;;;5.55;3.35;;;;;;;8.97;36.42;100176.28;4871237;29;20044;-74
2022/03/14 11:11:14;;;;;;;3.75;2.88;;;;;;;8.84;36.82;100172.56;4873726;29;20514;-76
2022/03/14 11:13:45;;;;;;;5.68;3.40;;;;;;;8.56;36.89;100169.75;4869381;29;20040;-78
2022/03/14 11:16:20;;;;;;;6.45;3.63;;;;;;;8.28;37.10;100171.19;4876087;29;20116;-76
2022/03/14 11:18:46;;;;;;;7.20;3.40;;;;;;;7.97;37.89;100171.97;4857710;29;20057;-76
2022/03/14 11:21:15;;;;;;;5.97;3.03;;;;;;;7.86;38.13;100170.81;4875172;29;20048;-72